sensor_id;sensor_type;location;lat;lon;timestamp;P1;durP1;ratioP1;P2;durP2;ratioP2
41952;SDS011;63613;28.200;112.870;2023-07-09T00:02:23;7.68;;;7.07;;
41952;SDS011;63613;28.200;112.870;2023-07-09T00:04:51;7.65;;;6.97;;
41952;SDS011;63613;28.200;112.870;2023-07-09T00:07:23;7.13;;;6.50;;
41952;SDS011;63613;28.200;112.870;2023-07-09T00:09:55;7.60;;;7.00;;
41952;SDS011;63613;28.200;112.870;2023-07-09T00:12:23;7.22;;;6.70;;
41952;SDS011;63613;28.200;112.870;2023-07-09T00:14:50;8.27;;;7.47;;
41952;SDS011;63613;28.200;112.870;2023-07-09T00:17:23;8.30;;;7.60;;
41952;SDS011;63613;28.200;112.870;2023-07-09T00:19:53;7.45;;;6.85;;
41952;SDS011;63613;28.200;112.870;2023-07-09T00:22:20;7.55;;;6.90;;
41952;SDS011;63613;28.200;112.870;2023-07-09T00:24:48;7.43;;;6.65;;
41952;SDS011;63613;28.200;112.870;2023-07-09T00:27:17;7.82;;;7.22;;
41952;SDS011;63613;28.200;112.870;2023-07-09T00:29:45;7.43;;;6.78;;
41952;SDS011;63613;28.200;112.870;2023-07-09T00:32:16;7.90;;;7.30;;
41952;SDS011;63613;28.200;112.870;2023-07-09T00:34:49;8.40;;;7.60;;
41952;SDS011;63613;28.200;112.870;2023-07-09T00:37:19;7.60;;;7.00;;
41952;SDS011;63613;28.200;112.870;2023-07-09T00:39:51;8.30;;;7.63;;
41952;SDS011;63613;28.200;112.870;2023-07-09T00:42:18;7.78;;;7.03;;
41952;SDS011;63613;28.200;112.870;2023-07-09T00:44:49;7.72;;;6.95;;
41952;SDS011;63613;28.200;112.870;2023-07-09T00:47:29;8.23;;;7.53;;
41952;SDS011;63613;28.200;112.870;2023-07-09T00:50:03;7.65;;;6.95;;
41952;SDS011;63613;28.200;112.870;2023-07-09T00:52:38;10.00;;;7.18;;
41952;SDS011;63613;28.200;112.870;2023-07-09T00:55:20;8.48;;;7.70;;
41952;SDS011;63613;28.200;112.870;2023-07-09T00:57:52;7.75;;;7.03;;
41952;SDS011;63613;28.200;112.870;2023-07-09T01:00:34;8.10;;;7.50;;
41952;SDS011;63613;28.200;112.870;2023-07-09T01:03:13;8.65;;;7.80;;
41952;SDS011;63613;28.200;112.870;2023-07-09T01:05:56;12.23;;;7.93;;
41952;SDS011;63613;28.200;112.870;2023-07-09T01:08:24;9.63;;;7.65;;
41952;SDS011;63613;28.200;112.870;2023-07-09T01:10:56;8.57;;;7.78;;
41952;SDS011;63613;28.200;112.870;2023-07-09T01:13:27;8.55;;;7.75;;
41952;SDS011;63613;28.200;112.870;2023-07-09T01:15:57;8.40;;;7.60;;
41952;SDS011;63613;28.200;112.870;2023-07-09T01:18:25;8.32;;;7.53;;
41952;SDS011;63613;28.200;112.870;2023-07-09T01:20:57;9.85;;;8.20;;
41952;SDS011;63613;28.200;112.870;2023-07-09T01:23:27;9.10;;;8.10;;
41952;SDS011;63613;28.200;112.870;2023-07-09T01:25:54;10.20;;;8.23;;
41952;SDS011;63613;28.200;112.870;2023-07-09T01:28:21;7.95;;;7.28;;
41952;SDS011;63613;28.200;112.870;2023-07-09T01:30:48;8.43;;;7.63;;
41952;SDS011;63613;28.200;112.870;2023-07-09T01:33:20;8.00;;;7.30;;
41952;SDS011;63613;28.200;112.870;2023-07-09T01:35:48;8.40;;;7.60;;
41952;SDS011;63613;28.200;112.870;2023-07-09T01:38:18;8.18;;;7.57;;
41952;SDS011;63613;28.200;112.870;2023-07-09T01:40:45;8.75;;;7.07;;
41952;SDS011;63613;28.200;112.870;2023-07-09T01:43:16;9.40;;;8.27;;
41952;SDS011;63613;28.200;112.870;2023-07-09T01:45:43;8.52;;;7.82;;
41952;SDS011;63613;28.200;112.870;2023-07-09T01:48:15;9.13;;;8.32;;
41952;SDS011;63613;28.200;112.870;2023-07-09T01:50:46;8.20;;;7.57;;
41952;SDS011;63613;28.200;112.870;2023-07-09T01:53:16;8.70;;;7.38;;
41952;SDS011;63613;28.200;112.870;2023-07-09T01:55:49;8.60;;;7.90;;
41952;SDS011;63613;28.200;112.870;2023-07-09T01:58:20;8.90;;;8.00;;
41952;SDS011;63613;28.200;112.870;2023-07-09T02:01:00;8.55;;;7.75;;
41952;SDS011;63613;28.200;112.870;2023-07-09T02:03:34;8.35;;;7.35;;
41952;SDS011;63613;28.200;112.870;2023-07-09T02:06:10;9.07;;;8.20;;
41952;SDS011;63613;28.200;112.870;2023-07-09T02:11:58;9.07;;;8.00;;
41952;SDS011;63613;28.200;112.870;2023-07-09T02:14:30;15.88;;;7.13;;
41952;SDS011;63613;28.200;112.870;2023-07-09T02:17:00;9.32;;;8.48;;
41952;SDS011;63613;28.200;112.870;2023-07-09T02:19:29;8.48;;;7.78;;
41952;SDS011;63613;28.200;112.870;2023-07-09T02:21:57;8.70;;;8.00;;
41952;SDS011;63613;28.200;112.870;2023-07-09T02:24:24;9.02;;;8.23;;
41952;SDS011;63613;28.200;112.870;2023-07-09T02:27:03;8.35;;;7.53;;
41952;SDS011;63613;28.200;112.870;2023-07-09T02:29:34;9.25;;;7.72;;
41952;SDS011;63613;28.200;112.870;2023-07-09T02:32:03;8.90;;;8.10;;
41952;SDS011;63613;28.200;112.870;2023-07-09T02:34:31;8.75;;;7.72;;
41952;SDS011;63613;28.200;112.870;2023-07-09T02:37:03;9.23;;;8.40;;
41952;SDS011;63613;28.200;112.870;2023-07-09T02:39:36;8.88;;;7.95;;
41952;SDS011;63613;28.200;112.870;2023-07-09T02:47:50;8.13;;;7.43;;
41952;SDS011;63613;28.200;112.870;2023-07-09T02:50:16;8.63;;;7.82;;
41952;SDS011;63613;28.200;112.870;2023-07-09T02:53:01;8.43;;;7.63;;
41952;SDS011;63613;28.200;112.870;2023-07-09T02:55:40;8.25;;;7.45;;
41952;SDS011;63613;28.200;112.870;2023-07-09T02:58:09;8.13;;;7.43;;
41952;SDS011;63613;28.200;112.870;2023-07-09T03:00:48;8.73;;;7.88;;
41952;SDS011;63613;28.200;112.870;2023-07-09T03:03:48;8.88;;;8.05;;
41952;SDS011;63613;28.200;112.870;2023-07-09T03:08:58;9.15;;;8.15;;
41952;SDS011;63613;28.200;112.870;2023-07-09T03:11:29;8.23;;;7.43;;
41952;SDS011;63613;28.200;112.870;2023-07-09T03:13:59;7.88;;;7.18;;
41952;SDS011;63613;28.200;112.870;2023-07-09T03:16:27;8.07;;;7.35;;
41952;SDS011;63613;28.200;112.870;2023-07-09T03:19:01;7.47;;;6.88;;
41952;SDS011;63613;28.200;112.870;2023-07-09T03:21:49;8.05;;;7.35;;
41952;SDS011;63613;28.200;112.870;2023-07-09T03:24:19;7.53;;;6.88;;
41952;SDS011;63613;28.200;112.870;2023-07-09T03:26:54;8.13;;;7.38;;
41952;SDS011;63613;28.200;112.870;2023-07-09T03:29:22;8.07;;;7.38;;
41952;SDS011;63613;28.200;112.870;2023-07-09T03:35:07;8.80;;;7.97;;
41952;SDS011;63613;28.200;112.870;2023-07-09T03:37:38;8.77;;;7.88;;
41952;SDS011;63613;28.200;112.870;2023-07-09T03:40:29;8.68;;;8.05;;
41952;SDS011;63613;28.200;112.870;2023-07-09T03:43:01;8.35;;;7.65;;
41952;SDS011;63613;28.200;112.870;2023-07-09T03:45:32;8.45;;;7.75;;
41952;SDS011;63613;28.200;112.870;2023-07-09T03:48:00;9.65;;;7.97;;
41952;SDS011;63613;28.200;112.870;2023-07-09T03:50:27;8.55;;;7.75;;
41952;SDS011;63613;28.200;112.870;2023-07-09T03:53:09;11.07;;;8.20;;
41952;SDS011;63613;28.200;112.870;2023-07-09T04:06:15;9.20;;;8.18;;
41952;SDS011;63613;28.200;112.870;2023-07-09T04:09:06;7.95;;;7.18;;
41952;SDS011;63613;28.200;112.870;2023-07-09T04:24:41;8.43;;;7.65;;
41952;SDS011;63613;28.200;112.870;2023-07-09T04:28:01;8.48;;;7.68;;
41952;SDS011;63613;28.200;112.870;2023-07-09T04:31:03;10.02;;;8.00;;
41952;SDS011;63613;28.200;112.870;2023-07-09T04:38:19;8.10;;;7.50;;
41952;SDS011;63613;28.200;112.870;2023-07-09T04:41:30;8.27;;;7.47;;
41952;SDS011;63613;28.200;112.870;2023-07-09T04:44:32;8.40;;;7.47;;
41952;SDS011;63613;28.200;112.870;2023-07-09T04:47:02;8.98;;;8.18;;
41952;SDS011;63613;28.200;112.870;2023-07-09T04:53:39;8.25;;;7.55;;
41952;SDS011;63613;28.200;112.870;2023-07-09T04:59:01;7.88;;;7.07;;
41952;SDS011;63613;28.200;112.870;2023-07-09T05:01:50;8.73;;;7.90;;
41952;SDS011;63613;28.200;112.870;2023-07-09T05:04:25;9.07;;;8.07;;
41952;SDS011;63613;28.200;112.870;2023-07-09T05:07:18;9.15;;;8.30;;
41952;SDS011;63613;28.200;112.870;2023-07-09T05:13:44;8.90;;;8.18;;
41952;SDS011;63613;28.200;112.870;2023-07-09T05:16:23;9.75;;;8.27;;
41952;SDS011;63613;28.200;112.870;2023-07-09T05:18:51;8.93;;;8.02;;
41952;SDS011;63613;28.200;112.870;2023-07-09T05:21:24;9.30;;;8.10;;
41952;SDS011;63613;28.200;112.870;2023-07-09T05:24:02;8.60;;;7.70;;
41952;SDS011;63613;28.200;112.870;2023-07-09T05:26:44;9.93;;;7.85;;
41952;SDS011;63613;28.200;112.870;2023-07-09T05:29:34;10.52;;;8.25;;
41952;SDS011;63613;28.200;112.870;2023-07-09T05:36:12;10.05;;;9.05;;
41952;SDS011;63613;28.200;112.870;2023-07-09T05:38:56;10.40;;;9.40;;
41952;SDS011;63613;28.200;112.870;2023-07-09T05:45:21;10.75;;;9.68;;
41952;SDS011;63613;28.200;112.870;2023-07-09T05:48:11;11.88;;;10.75;;
41952;SDS011;63613;28.200;112.870;2023-07-09T05:50:40;11.48;;;9.50;;
41952;SDS011;63613;28.200;112.870;2023-07-09T05:53:15;12.77;;;10.23;;
41952;SDS011;63613;28.200;112.870;2023-07-09T05:56:33;11.00;;;9.75;;
41952;SDS011;63613;28.200;112.870;2023-07-09T05:59:10;11.70;;;10.60;;
41952;SDS011;63613;28.200;112.870;2023-07-09T06:01:37;13.10;;;11.32;;
41952;SDS011;63613;28.200;112.870;2023-07-09T06:04:12;13.73;;;10.30;;
41952;SDS011;63613;28.200;112.870;2023-07-09T06:06:59;12.40;;;10.88;;
41952;SDS011;63613;28.200;112.870;2023-07-09T06:09:36;12.60;;;11.10;;
41952;SDS011;63613;28.200;112.870;2023-07-09T06:12:03;13.43;;;11.30;;
41952;SDS011;63613;28.200;112.870;2023-07-09T06:15:19;17.05;;;13.38;;
41952;SDS011;63613;28.200;112.870;2023-07-09T06:17:46;17.58;;;14.30;;
41952;SDS011;63613;28.200;112.870;2023-07-09T06:20:13;22.73;;;15.82;;
41952;SDS011;63613;28.200;112.870;2023-07-09T06:22:59;26.85;;;18.95;;
41952;SDS011;63613;28.200;112.870;2023-07-09T06:25:26;24.30;;;18.33;;
41952;SDS011;63613;28.200;112.870;2023-07-09T06:27:54;28.10;;;19.20;;
41952;SDS011;63613;28.200;112.870;2023-07-09T06:30:22;26.73;;;19.83;;
41952;SDS011;63613;28.200;112.870;2023-07-09T06:32:51;29.48;;;21.08;;
41952;SDS011;63613;28.200;112.870;2023-07-09T06:35:18;34.20;;;22.75;;
41952;SDS011;63613;28.200;112.870;2023-07-09T06:37:45;33.20;;;23.58;;
41952;SDS011;63613;28.200;112.870;2023-07-09T06:40:13;38.85;;;26.63;;
41952;SDS011;63613;28.200;112.870;2023-07-09T06:42:40;37.05;;;26.15;;
41952;SDS011;63613;28.200;112.870;2023-07-09T06:45:07;37.85;;;26.88;;
41952;SDS011;63613;28.200;112.870;2023-07-09T06:47:34;39.67;;;26.48;;
41952;SDS011;63613;28.200;112.870;2023-07-09T06:50:01;42.17;;;27.08;;
41952;SDS011;63613;28.200;112.870;2023-07-09T06:52:28;41.83;;;28.42;;
41952;SDS011;63613;28.200;112.870;2023-07-09T06:54:54;43.88;;;29.52;;
41952;SDS011;63613;28.200;112.870;2023-07-09T06:57:21;39.53;;;26.27;;
41952;SDS011;63613;28.200;112.870;2023-07-09T06:59:50;40.40;;;28.35;;
41952;SDS011;63613;28.200;112.870;2023-07-09T07:02:17;47.15;;;29.40;;
41952;SDS011;63613;28.200;112.870;2023-07-09T07:04:44;42.20;;;29.15;;
41952;SDS011;63613;28.200;112.870;2023-07-09T07:07:11;45.22;;;29.83;;
41952;SDS011;63613;28.200;112.870;2023-07-09T07:09:38;41.20;;;28.42;;
41952;SDS011;63613;28.200;112.870;2023-07-09T07:12:05;43.92;;;30.33;;
41952;SDS011;63613;28.200;112.870;2023-07-09T07:14:32;44.03;;;30.13;;
41952;SDS011;63613;28.200;112.870;2023-07-09T07:16:59;45.15;;;28.60;;
41952;SDS011;63613;28.200;112.870;2023-07-09T07:19:30;38.88;;;27.08;;
41952;SDS011;63613;28.200;112.870;2023-07-09T07:21:57;39.63;;;27.00;;
41952;SDS011;63613;28.200;112.870;2023-07-09T07:24:24;33.25;;;24.63;;
41952;SDS011;63613;28.200;112.870;2023-07-09T07:26:51;39.05;;;27.73;;
41952;SDS011;63613;28.200;112.870;2023-07-09T07:29:18;36.65;;;25.27;;
41952;SDS011;63613;28.200;112.870;2023-07-09T07:31:45;33.97;;;24.10;;
41952;SDS011;63613;28.200;112.870;2023-07-09T07:34:12;34.45;;;24.48;;
41952;SDS011;63613;28.200;112.870;2023-07-09T07:36:38;34.95;;;25.83;;
41952;SDS011;63613;28.200;112.870;2023-07-09T07:39:05;37.60;;;28.30;;
41952;SDS011;63613;28.200;112.870;2023-07-09T07:41:32;35.72;;;26.73;;
41952;SDS011;63613;28.200;112.870;2023-07-09T07:44:19;38.63;;;29.13;;
41952;SDS011;63613;28.200;112.870;2023-07-09T07:46:46;42.03;;;29.65;;
41952;SDS011;63613;28.200;112.870;2023-07-09T07:49:13;40.95;;;27.55;;
41952;SDS011;63613;28.200;112.870;2023-07-09T07:51:40;41.28;;;28.30;;
41952;SDS011;63613;28.200;112.870;2023-07-09T07:54:07;41.22;;;28.85;;
41952;SDS011;63613;28.200;112.870;2023-07-09T07:56:38;42.58;;;30.70;;
41952;SDS011;63613;28.200;112.870;2023-07-09T07:59:07;43.15;;;30.88;;
41952;SDS011;63613;28.200;112.870;2023-07-09T08:01:33;45.83;;;31.70;;
41952;SDS011;63613;28.200;112.870;2023-07-09T08:04:03;40.55;;;28.75;;
41952;SDS011;63613;28.200;112.870;2023-07-09T08:06:30;41.00;;;29.27;;
41952;SDS011;63613;28.200;112.870;2023-07-09T08:08:58;45.10;;;32.00;;
41952;SDS011;63613;28.200;112.870;2023-07-09T08:11:25;39.13;;;27.70;;
41952;SDS011;63613;28.200;112.870;2023-07-09T08:13:53;40.25;;;29.65;;
41952;SDS011;63613;28.200;112.870;2023-07-09T08:16:23;35.03;;;26.25;;
41952;SDS011;63613;28.200;112.870;2023-07-09T08:18:56;36.53;;;24.63;;
41952;SDS011;63613;28.200;112.870;2023-07-09T08:21:22;33.75;;;26.35;;
41952;SDS011;63613;28.200;112.870;2023-07-09T08:23:52;36.40;;;26.60;;
41952;SDS011;63613;28.200;112.870;2023-07-09T08:26:19;33.47;;;25.35;;
41952;SDS011;63613;28.200;112.870;2023-07-09T08:28:46;36.55;;;26.10;;
41952;SDS011;63613;28.200;112.870;2023-07-09T08:31:14;31.70;;;24.90;;
41952;SDS011;63613;28.200;112.870;2023-07-09T08:33:41;35.30;;;24.05;;
41952;SDS011;63613;28.200;112.870;2023-07-09T08:36:09;34.08;;;24.90;;
41952;SDS011;63613;28.200;112.870;2023-07-09T08:38:38;31.92;;;24.73;;
41952;SDS011;63613;28.200;112.870;2023-07-09T08:41:12;35.22;;;25.77;;
41952;SDS011;63613;28.200;112.870;2023-07-09T08:52:38;35.05;;;26.23;;
41952;SDS011;63613;28.200;112.870;2023-07-09T08:55:08;32.70;;;26.13;;
41952;SDS011;63613;28.200;112.870;2023-07-09T08:57:44;34.53;;;26.45;;
41952;SDS011;63613;28.200;112.870;2023-07-09T09:05:48;36.88;;;28.92;;
41952;SDS011;63613;28.200;112.870;2023-07-09T09:13:35;36.13;;;27.20;;
41952;SDS011;63613;28.200;112.870;2023-07-09T09:16:04;34.13;;;26.83;;
41952;SDS011;63613;28.200;112.870;2023-07-09T09:18:57;35.60;;;27.13;;
41952;SDS011;63613;28.200;112.870;2023-07-09T09:21:32;32.85;;;25.80;;
41952;SDS011;63613;28.200;112.870;2023-07-09T09:24:12;33.25;;;24.17;;
41952;SDS011;63613;28.200;112.870;2023-07-09T09:27:01;34.13;;;25.55;;
41952;SDS011;63613;28.200;112.870;2023-07-09T09:29:28;31.75;;;24.17;;
41952;SDS011;63613;28.200;112.870;2023-07-09T09:31:56;29.33;;;22.55;;
41952;SDS011;63613;28.200;112.870;2023-07-09T09:34:28;29.35;;;23.23;;
41952;SDS011;63613;28.200;112.870;2023-07-09T09:36:58;28.48;;;21.50;;
41952;SDS011;63613;28.200;112.870;2023-07-09T09:39:26;29.17;;;22.77;;
41952;SDS011;63613;28.200;112.870;2023-07-09T09:41:54;27.55;;;21.73;;
41952;SDS011;63613;28.200;112.870;2023-07-09T09:44:26;26.95;;;22.20;;
41952;SDS011;63613;28.200;112.870;2023-07-09T09:46:57;27.85;;;21.23;;
41952;SDS011;63613;28.200;112.870;2023-07-09T09:49:25;29.52;;;23.08;;
41952;SDS011;63613;28.200;112.870;2023-07-09T09:51:53;29.27;;;22.75;;
41952;SDS011;63613;28.200;112.870;2023-07-09T09:54:40;29.50;;;23.08;;
41952;SDS011;63613;28.200;112.870;2023-07-09T09:57:19;31.48;;;23.67;;
41952;SDS011;63613;28.200;112.870;2023-07-09T09:59:53;28.55;;;21.42;;
41952;SDS011;63613;28.200;112.870;2023-07-09T10:02:26;29.35;;;23.05;;
41952;SDS011;63613;28.200;112.870;2023-07-09T10:04:52;29.35;;;23.77;;
41952;SDS011;63613;28.200;112.870;2023-07-09T10:07:23;30.45;;;24.10;;
41952;SDS011;63613;28.200;112.870;2023-07-09T10:10:00;30.38;;;23.48;;
41952;SDS011;63613;28.200;112.870;2023-07-09T10:12:33;30.00;;;23.90;;
41952;SDS011;63613;28.200;112.870;2023-07-09T10:17:49;30.88;;;23.98;;
41952;SDS011;63613;28.200;112.870;2023-07-09T10:21:08;34.20;;;25.67;;
41952;SDS011;63613;28.200;112.870;2023-07-09T10:23:22;29.70;;;23.60;;
41952;SDS011;63613;28.200;112.870;2023-07-09T10:31:46;33.80;;;24.90;;
41952;SDS011;63613;28.200;112.870;2023-07-09T10:34:44;30.48;;;24.17;;
41952;SDS011;63613;28.200;112.870;2023-07-09T10:37:33;33.20;;;25.38;;
41952;SDS011;63613;28.200;112.870;2023-07-09T10:40:14;30.27;;;24.08;;
41952;SDS011;63613;28.200;112.870;2023-07-09T10:42:48;29.17;;;24.35;;
41952;SDS011;63613;28.200;112.870;2023-07-09T10:45:22;33.42;;;24.42;;
41952;SDS011;63613;28.200;112.870;2023-07-09T10:50:44;32.88;;;24.52;;
41952;SDS011;63613;28.200;112.870;2023-07-09T10:53:36;32.97;;;25.58;;
41952;SDS011;63613;28.200;112.870;2023-07-09T10:58:37;36.40;;;28.10;;
41952;SDS011;63613;28.200;112.870;2023-07-09T11:01:31;38.38;;;27.80;;
41952;SDS011;63613;28.200;112.870;2023-07-09T11:04:05;31.92;;;24.95;;
41952;SDS011;63613;28.200;112.870;2023-07-09T11:06:53;33.58;;;25.10;;
41952;SDS011;63613;28.200;112.870;2023-07-09T11:09:34;32.97;;;25.38;;
41952;SDS011;63613;28.200;112.870;2023-07-09T11:12:08;33.95;;;25.38;;
41952;SDS011;63613;28.200;112.870;2023-07-09T11:14:57;32.95;;;24.92;;
41952;SDS011;63613;28.200;112.870;2023-07-09T11:17:36;35.20;;;25.20;;
41952;SDS011;63613;28.200;112.870;2023-07-09T11:20:14;34.40;;;24.65;;
41952;SDS011;63613;28.200;112.870;2023-07-09T11:23:15;33.38;;;26.05;;
41952;SDS011;63613;28.200;112.870;2023-07-09T11:25:45;33.30;;;25.38;;
41952;SDS011;63613;28.200;112.870;2023-07-09T11:28:37;29.17;;;24.48;;
41952;SDS011;63613;28.200;112.870;2023-07-09T11:31:06;33.63;;;25.85;;
41952;SDS011;63613;28.200;112.870;2023-07-09T11:33:45;32.75;;;25.00;;
41952;SDS011;63613;28.200;112.870;2023-07-09T11:36:26;31.73;;;24.50;;
41952;SDS011;63613;28.200;112.870;2023-07-09T11:38:56;31.95;;;24.85;;
41952;SDS011;63613;28.200;112.870;2023-07-09T11:41:28;30.63;;;23.55;;
41952;SDS011;63613;28.200;112.870;2023-07-09T11:44:04;30.00;;;23.67;;
41952;SDS011;63613;28.200;112.870;2023-07-09T11:46:35;31.98;;;25.73;;
41952;SDS011;63613;28.200;112.870;2023-07-09T11:49:10;33.30;;;24.52;;
41952;SDS011;63613;28.200;112.870;2023-07-09T11:51:42;32.55;;;25.02;;
41952;SDS011;63613;28.200;112.870;2023-07-09T11:54:15;32.60;;;25.92;;
41952;SDS011;63613;28.200;112.870;2023-07-09T11:56:55;32.65;;;24.65;;
41952;SDS011;63613;28.200;112.870;2023-07-09T11:59:24;31.42;;;24.40;;
41952;SDS011;63613;28.200;112.870;2023-07-09T12:01:51;32.63;;;24.40;;
41952;SDS011;63613;28.200;112.870;2023-07-09T12:04:21;30.17;;;22.75;;
41952;SDS011;63613;28.200;112.870;2023-07-09T12:06:57;30.50;;;24.00;;
41952;SDS011;63613;28.200;112.870;2023-07-09T12:09:29;32.00;;;23.85;;
41952;SDS011;63613;28.200;112.870;2023-07-09T12:11:58;29.20;;;24.08;;
41952;SDS011;63613;28.200;112.870;2023-07-09T12:14:25;30.48;;;23.05;;
41952;SDS011;63613;28.200;112.870;2023-07-09T12:16:53;28.45;;;23.40;;
41952;SDS011;63613;28.200;112.870;2023-07-09T12:19:21;29.88;;;23.48;;
41952;SDS011;63613;28.200;112.870;2023-07-09T12:21:53;31.23;;;23.30;;
41952;SDS011;63613;28.200;112.870;2023-07-09T12:24:41;28.83;;;23.25;;
41952;SDS011;63613;28.200;112.870;2023-07-09T12:27:20;29.10;;;23.17;;
41952;SDS011;63613;28.200;112.870;2023-07-09T12:29:53;27.23;;;23.10;;
41952;SDS011;63613;28.200;112.870;2023-07-09T12:32:23;26.90;;;22.73;;
41952;SDS011;63613;28.200;112.870;2023-07-09T12:34:52;30.80;;;23.67;;
41952;SDS011;63613;28.200;112.870;2023-07-09T12:37:21;28.80;;;23.05;;
41952;SDS011;63613;28.200;112.870;2023-07-09T12:39:51;26.42;;;21.70;;
41952;SDS011;63613;28.200;112.870;2023-07-09T12:42:19;28.67;;;23.80;;
41952;SDS011;63613;28.200;112.870;2023-07-09T12:44:52;30.17;;;23.00;;
41952;SDS011;63613;28.200;112.870;2023-07-09T12:47:19;26.08;;;21.33;;
41952;SDS011;63613;28.200;112.870;2023-07-09T12:49:49;26.83;;;22.70;;
41952;SDS011;63613;28.200;112.870;2023-07-09T12:52:21;26.08;;;20.98;;
41952;SDS011;63613;28.200;112.870;2023-07-09T12:54:57;27.20;;;21.13;;
41952;SDS011;63613;28.200;112.870;2023-07-09T12:57:27;28.05;;;21.35;;
41952;SDS011;63613;28.200;112.870;2023-07-09T12:59:56;28.70;;;22.67;;
41952;SDS011;63613;28.200;112.870;2023-07-09T13:02:27;27.00;;;21.40;;
41952;SDS011;63613;28.200;112.870;2023-07-09T13:04:59;26.77;;;22.02;;
41952;SDS011;63613;28.200;112.870;2023-07-09T13:07:38;26.00;;;20.83;;
41952;SDS011;63613;28.200;112.870;2023-07-09T13:10:16;26.80;;;19.77;;
41952;SDS011;63613;28.200;112.870;2023-07-09T13:12:45;24.55;;;19.92;;
41952;SDS011;63613;28.200;112.870;2023-07-09T13:18:02;25.58;;;20.98;;
41952;SDS011;63613;28.200;112.870;2023-07-09T13:20:31;25.02;;;19.60;;
41952;SDS011;63613;28.200;112.870;2023-07-09T13:23:04;24.00;;;19.70;;
41952;SDS011;63613;28.200;112.870;2023-07-09T13:25:51;24.55;;;20.75;;
41952;SDS011;63613;28.200;112.870;2023-07-09T13:28:30;23.58;;;21.00;;
41952;SDS011;63613;28.200;112.870;2023-07-09T13:30:58;24.35;;;19.85;;
41952;SDS011;63613;28.200;112.870;2023-07-09T13:33:36;23.50;;;19.33;;
41952;SDS011;63613;28.200;112.870;2023-07-09T13:36:08;22.88;;;19.73;;
41952;SDS011;63613;28.200;112.870;2023-07-09T13:38:35;22.50;;;19.42;;
41952;SDS011;63613;28.200;112.870;2023-07-09T13:41:14;22.42;;;18.60;;
41952;SDS011;63613;28.200;112.870;2023-07-09T13:43:47;23.92;;;20.02;;
41952;SDS011;63613;28.200;112.870;2023-07-09T13:46:17;21.63;;;17.83;;
41952;SDS011;63613;28.200;112.870;2023-07-09T13:48:45;23.05;;;18.88;;
41952;SDS011;63613;28.200;112.870;2023-07-09T13:51:19;22.33;;;19.23;;
41952;SDS011;63613;28.200;112.870;2023-07-09T13:53:53;24.25;;;20.20;;
41952;SDS011;63613;28.200;112.870;2023-07-09T13:56:40;22.35;;;19.17;;
41952;SDS011;63613;28.200;112.870;2023-07-09T13:59:14;23.08;;;19.08;;
41952;SDS011;63613;28.200;112.870;2023-07-09T14:01:43;21.30;;;18.15;;
41952;SDS011;63613;28.200;112.870;2023-07-09T14:04:12;26.02;;;19.67;;
41952;SDS011;63613;28.200;112.870;2023-07-09T14:06:47;20.23;;;16.92;;
41952;SDS011;63613;28.200;112.870;2023-07-09T14:09:14;20.02;;;16.38;;
41952;SDS011;63613;28.200;112.870;2023-07-09T14:11:43;19.40;;;17.23;;
41952;SDS011;63613;28.200;112.870;2023-07-09T14:14:23;21.33;;;18.67;;
41952;SDS011;63613;28.200;112.870;2023-07-09T14:16:57;20.25;;;16.88;;
41952;SDS011;63613;28.200;112.870;2023-07-09T14:19:26;18.83;;;16.48;;
41952;SDS011;63613;28.200;112.870;2023-07-09T14:21:53;20.23;;;16.67;;
41952;SDS011;63613;28.200;112.870;2023-07-09T14:26:52;21.30;;;17.45;;
41952;SDS011;63613;28.200;112.870;2023-07-09T14:29:21;18.60;;;16.10;;
41952;SDS011;63613;28.200;112.870;2023-07-09T14:31:49;19.35;;;16.38;;
41952;SDS011;63613;28.200;112.870;2023-07-09T14:34:23;19.55;;;17.13;;
41952;SDS011;63613;28.200;112.870;2023-07-09T14:36:54;18.30;;;15.65;;
41952;SDS011;63613;28.200;112.870;2023-07-09T14:39:28;18.10;;;14.77;;
41952;SDS011;63613;28.200;112.870;2023-07-09T14:41:56;17.65;;;15.63;;
41952;SDS011;63613;28.200;112.870;2023-07-09T14:44:28;18.55;;;16.27;;
41952;SDS011;63613;28.200;112.870;2023-07-09T14:46:58;16.23;;;14.52;;
41952;SDS011;63613;28.200;112.870;2023-07-09T14:49:35;16.70;;;14.80;;
41952;SDS011;63613;28.200;112.870;2023-07-09T14:52:02;18.55;;;14.82;;
41952;SDS011;63613;28.200;112.870;2023-07-09T14:54:37;16.60;;;14.55;;
41952;SDS011;63613;28.200;112.870;2023-07-09T14:57:21;17.60;;;14.60;;
41952;SDS011;63613;28.200;112.870;2023-07-09T14:59:56;16.10;;;14.40;;
41952;SDS011;63613;28.200;112.870;2023-07-09T15:02:36;17.02;;;13.32;;
41952;SDS011;63613;28.200;112.870;2023-07-09T15:05:26;16.65;;;13.40;;
41952;SDS011;63613;28.200;112.870;2023-07-09T15:07:54;14.65;;;13.13;;
41952;SDS011;63613;28.200;112.870;2023-07-09T15:10:24;16.17;;;13.48;;
41952;SDS011;63613;28.200;112.870;2023-07-09T15:12:54;13.57;;;12.18;;
41952;SDS011;63613;28.200;112.870;2023-07-09T15:17:53;13.68;;;12.25;;
41952;SDS011;63613;28.200;112.870;2023-07-09T15:20:28;13.10;;;11.60;;
41952;SDS011;63613;28.200;112.870;2023-07-09T15:23:13;13.02;;;11.57;;
41952;SDS011;63613;28.200;112.870;2023-07-09T15:25:48;14.13;;;11.15;;
41952;SDS011;63613;28.200;112.870;2023-07-09T15:28:16;12.82;;;10.35;;
41952;SDS011;63613;28.200;112.870;2023-07-09T15:30:43;12.65;;;11.35;;
41952;SDS011;63613;28.200;112.870;2023-07-09T15:33:16;12.77;;;11.00;;
41952;SDS011;63613;28.200;112.870;2023-07-09T15:35:44;11.43;;;10.30;;
41952;SDS011;63613;28.200;112.870;2023-07-09T15:40:57;11.95;;;10.60;;
41952;SDS011;63613;28.200;112.870;2023-07-09T15:43:24;11.75;;;10.60;;
41952;SDS011;63613;28.200;112.870;2023-07-09T15:45:52;12.32;;;10.45;;
41952;SDS011;63613;28.200;112.870;2023-07-09T15:48:32;12.65;;;10.88;;
41952;SDS011;63613;28.200;112.870;2023-07-09T15:51:01;11.43;;;10.27;;
41952;SDS011;63613;28.200;112.870;2023-07-09T15:53:49;11.23;;;10.13;;
41952;SDS011;63613;28.200;112.870;2023-07-09T15:56:23;10.60;;;9.60;;
41952;SDS011;63613;28.200;112.870;2023-07-09T15:58:56;11.10;;;9.80;;
41952;SDS011;63613;28.200;112.870;2023-07-09T16:01:24;11.80;;;10.63;;
41952;SDS011;63613;28.200;112.870;2023-07-09T16:03:52;10.65;;;9.55;;
41952;SDS011;63613;28.200;112.870;2023-07-09T16:06:33;11.10;;;9.98;;
41952;SDS011;63613;28.200;112.870;2023-07-09T16:09:03;11.18;;;10.10;;
41952;SDS011;63613;28.200;112.870;2023-07-09T16:11:50;11.88;;;10.45;;
41952;SDS011;63613;28.200;112.870;2023-07-09T16:14:26;13.18;;;10.57;;
41952;SDS011;63613;28.200;112.870;2023-07-09T16:16:57;10.98;;;9.88;;
41952;SDS011;63613;28.200;112.870;2023-07-09T16:19:27;10.80;;;9.80;;
41952;SDS011;63613;28.200;112.870;2023-07-09T16:21:58;11.25;;;10.05;;
41952;SDS011;63613;28.200;112.870;2023-07-09T16:24:28;11.73;;;10.52;;
41952;SDS011;63613;28.200;112.870;2023-07-09T16:27:03;10.55;;;9.63;;